Time;durP1;ratioP1;P1;durP2;ratioP2;P2;SDS_P1;SDS_P2;PMS_P1;PMS_P2;Temp;Humidity;BMP_temperature;BMP_pressure;BME280_temperature;BME280_humidity;BME280_pressure;Samples;Min_cycle;Max_cycle;Signal;HPM_P1;HPM_P2
2023/11/24 00:00:11;;;;;;;6.90;5.60;;;;;;;5.10;76.18;95533.45;105031;1254;103574;-80
2023/11/24 00:02:58;;;;;;;6.40;4.40;;;;;;;5.10;76.20;95530.12;104943;1267;102622;-80
2023/11/24 00:05:26;;;;;;;7.00;4.50;;;;;;;5.09;76.19;95527.38;104971;1259;99257;-80
2023/11/24 00:07:54;;;;;;;6.80;4.50;;;;;;;5.11;76.20;95526.50;104961;1261;97889;-81
2023/11/24 00:10:22;;;;;;;4.50;3.90;;;;;;;5.09;76.19;95530.59;104936;1269;98341;-79
2023/11/24 00:12:50;;;;;;;5.80;3.60;;;;;;;5.08;76.13;95522.90;104989;1260;103795;-80
2023/11/24 00:15:17;;;;;;;6.80;4.50;;;;;;;5.08;76.28;95522.37;104953;1264;101789;-80
2023/11/24 00:17:45;;;;;;;5.70;4.30;;;;;;;5.07;76.51;95520.91;104945;1258;99983;-79
2023/11/24 00:20:14;;;;;;;4.80;3.80;;;;;;;5.06;76.81;95515.91;104972;1254;99464;-80
2023/11/24 00:22:42;;;;;;;3.60;3.20;;;;;;;5.04;76.76;95510.71;104981;1257;98039;-80
2023/11/24 00:25:10;;;;;;;3.80;2.90;;;;;;;5.02;76.73;95506.81;104584;1263;103779;-80
2023/11/24 00:27:38;;;;;;;5.10;3.30;;;;;;;5.01;76.85;95508.80;104984;1267;101233;-81
2023/11/24 00:30:07;;;;;;;4.50;3.90;;;;;;;4.99;77.19;95508.15;104894;1267;100056;-81
2023/11/24 00:32:35;;;;;;;5.10;3.40;;;;;;;4.99;77.31;95499.89;104978;1259;97979;-81
2023/11/24 00:35:06;;;;;;;4.10;3.20;;;;;;;4.96;77.54;95504.31;104946;1254;99582;-80
2023/11/24 00:37:34;;;;;;;5.00;4.00;;;;;;;4.96;77.56;95509.17;104971;1258;103516;-81
2023/11/24 00:40:07;;;;;;;4.40;3.60;;;;;;;4.96;77.77;95517.77;105000;1268;100077;-81
2023/11/24 00:42:36;;;;;;;5.00;3.30;;;;;;;4.95;77.64;95514.17;104886;1258;99119;-81
2023/11/24 00:45:06;;;;;;;5.80;3.10;;;;;;;4.95;77.88;95497.27;104702;1270;98107;-81
2023/11/24 00:47:35;;;;;;;4.70;3.20;;;;;;;4.94;77.79;95470.14;105009;1269;98354;-84
2023/11/24 00:50:02;;;;;;;6.10;3.40;;;;;;;4.93;77.61;95463.61;104977;1257;103890;-84
2023/11/24 00:52:31;;;;;;;3.70;3.20;;;;;;;4.92;77.44;95469.33;104889;1254;100108;-85
2023/11/24 00:54:59;;;;;;;4.20;2.80;;;;;;;4.91;77.45;95467.90;104909;1270;97979;-87
2023/11/24 00:57:27;;;;;;;4.70;3.30;;;;;;;4.90;77.46;95464.99;104933;1254;97920;-86
2023/11/24 00:59:54;;;;;;;4.20;3.50;;;;;;;4.91;77.44;95459.72;105065;1270;98408;-84
2023/11/24 01:02:23;;;;;;;3.80;3.40;;;;;;;4.90;77.29;95448.01;104950;1267;110876;-80
2023/11/24 01:04:52;;;;;;;3.40;2.80;;;;;;;4.92;77.20;95451.52;104986;1258;101508;-78
2023/11/24 01:07:19;;;;;;;2.50;2.20;;;;;;;4.91;76.78;95452.68;104613;1263;100255;-85
2023/11/24 01:09:49;;;;;;;2.70;2.50;;;;;;;4.94;76.73;95446.13;104911;1254;99164;-83
2023/11/24 01:12:17;;;;;;;3.00;2.60;;;;;;;4.94;76.64;95432.83;104756;1254;98354;-86
2023/11/24 01:14:45;;;;;;;4.00;2.90;;;;;;;4.96;76.61;95429.22;104950;1257;102660;-84
2023/11/24 01:17:14;;;;;;;3.50;2.50;;;;;;;4.97;76.67;95423.48;104965;1260;101687;-78
2023/11/24 01:19:42;;;;;;;3.50;2.30;;;;;;;4.96;76.35;95421.27;104696;1261;100300;-78
2023/11/24 01:22:10;;;;;;;3.70;3.00;;;;;;;4.95;76.26;95410.55;104928;1257;99259;-77
2023/11/24 01:24:37;;;;;;;3.30;2.70;;;;;;;4.94;76.31;95417.48;104960;1258;98370;-78
2023/11/24 01:27:06;;;;;;;2.60;2.40;;;;;;;4.94;76.32;95410.79;104916;1260;102623;-77
2023/11/24 01:29:33;;;;;;;3.40;2.80;;;;;;;4.95;76.47;95398.45;104963;1257;101411;-77
2023/11/24 01:32:01;;;;;;;2.50;2.30;;;;;;;4.97;76.41;95394.34;104951;1254;99022;-79
2023/11/24 01:34:29;;;;;;;4.50;2.60;;;;;;;4.97;76.25;95388.51;104944;1268;97919;-77
2023/11/24 01:36:56;;;;;;;3.10;2.70;;;;;;;4.98;76.11;95385.16;104871;1260;98487;-77
2023/11/24 01:39:24;;;;;;;2.80;2.30;;;;;;;5.00;76.35;95382.77;104907;1255;113101;-77
2023/11/24 01:41:52;;;;;;;3.50;2.70;;;;;;;5.00;76.36;95383.25;104894;1271;99962;-77
2023/11/24 01:44:22;;;;;;;2.50;2.20;;;;;;;5.01;76.31;95388.02;104868;1260;99189;-77
2023/11/24 01:46:50;;;;;;;3.30;2.70;;;;;;;5.01;76.25;95387.06;104637;1273;99042;-77
2023/11/24 01:49:17;;;;;;;2.80;2.40;;;;;;;5.03;76.22;95392.52;104915;1259;99242;-77
2023/11/24 01:51:45;;;;;;;3.20;2.50;;;;;;;5.01;76.53;95388.26;104957;1261;102543;-77
2023/11/24 01:54:14;;;;;;;2.60;2.30;;;;;;;5.00;76.81;95389.55;104884;1260;101662;-77
2023/11/24 01:56:42;;;;;;;2.80;2.30;;;;;;;4.99;76.92;95394.45;104924;1268;100045;-77
2023/11/24 01:59:11;;;;;;;2.20;2.00;;;;;;;4.97;77.07;95378.77;104914;1260;98024;-78
2023/11/24 02:01:40;;;;;;;2.40;2.20;;;;;;;4.95;77.14;95377.98;104733;1256;98549;-81
2023/11/24 02:04:08;;;;;;;3.80;2.60;;;;;;;4.95;77.16;95379.79;104961;1267;102492;-85
2023/11/24 02:06:36;;;;;;;2.30;2.10;;;;;;;4.94;77.61;95380.79;104939;1269;101631;-86
2023/11/24 02:09:04;;;;;;;2.70;2.10;;;;;;;4.92;78.04;95382.06;104904;1260;100265;-86
2023/11/24 02:11:31;;;;;;;7.60;4.20;;;;;;;4.91;78.07;95374.61;104788;1272;97896;-86
2023/11/24 02:13:59;;;;;;;4.40;2.80;;;;;;;4.90;78.15;95377.05;104926;1259;98600;-86
2023/11/24 02:16:27;;;;;;;4.70;3.20;;;;;;;4.87;78.65;95377.21;104947;1270;103891;-85
2023/11/24 02:18:54;;;;;;;4.40;2.70;;;;;;;4.85;78.81;95378.76;104662;1261;101378;-85
2023/11/24 02:21:22;;;;;;;5.40;3.40;;;;;;;4.82;79.20;95381.52;104522;1264;99978;-88
2023/11/24 02:23:51;;;;;;;2.70;2.40;;;;;;;4.77;79.85;95385.65;104535;1262;98235;-79
2023/11/24 02:26:19;;;;;;;4.60;2.20;;;;;;;4.71;80.75;95382.97;104440;1265;98510;-79
2023/11/24 02:28:46;;;;;;;3.60;2.70;;;;;;;4.65;80.96;95376.94;104547;1262;103671;-79
2023/11/24 02:31:16;;;;;;;2.70;2.10;;;;;;;4.63;81.23;95377.17;104616;1257;101615;-80
2023/11/24 02:33:48;;;;;;;5.50;3.00;;;;;;;4.60;81.02;95370.25;104599;1271;100150;-80
2023/11/24 02:36:20;;;;;;;4.20;2.30;;;;;;;4.58;81.22;95372.55;104511;1274;99746;-80
2023/11/24 02:38:49;;;;;;;4.20;2.40;;;;;;;4.56;81.70;95367.80;104543;1276;97881;-80
2023/11/24 02:41:18;;;;;;;2.30;2.10;;;;;;;4.53;82.20;95364.39;104546;1264;103593;-80
2023/11/24 02:43:46;;;;;;;2.90;2.10;;;;;;;4.50;82.05;95379.41;104467;1267;101295;-80
2023/11/24 02:46:14;;;;;;;2.50;1.80;;;;;;;4.48;82.81;95397.43;104568;1262;99288;-83
2023/11/24 02:48:44;;;;;;;1.90;1.70;;;;;;;4.44;83.53;95414.35;104646;1260;99152;-81
2023/11/24 02:51:13;;;;;;;3.50;2.00;;;;;;;4.44;82.96;95469.64;104940;1257;98345;-81
2023/11/24 02:53:43;;;;;;;2.10;1.00;;;;;;;4.45;82.54;95491.00;104699;1261;103684;-83
2023/11/24 02:56:13;;;;;;;0.90;0.60;;;;;;;4.44;82.32;95491.50;104582;1276;102013;-80
2023/11/24 02:58:41;;;;;;;0.20;0.20;;;;;;;4.41;82.19;95483.17;105023;1258;100159;-80
2023/11/24 03:01:09;;;;;;;0.30;0.20;;;;;;;4.35;81.92;95478.99;104926;1254;97909;-79
2023/11/24 03:03:37;;;;;;;0.30;0.20;;;;;;;4.33;81.98;95478.69;104937;1270;98395;-87
2023/11/24 03:06:05;;;;;;;1.10;0.20;;;;;;;4.34;82.04;95477.79;104964;1258;103647;-85
2023/11/24 03:08:34;;;;;;;0.80;0.30;;;;;;;4.36;82.07;95478.20;104952;1257;101355;-84
2023/11/24 03:11:05;;;;;;;0.80;0.30;;;;;;;4.33;81.80;95478.06;104945;1258;99778;-84
2023/11/24 03:13:34;;;;;;;0.40;0.20;;;;;;;4.22;81.58;95476.98;105121;1257;98920;-85
2023/11/24 03:16:06;;;;;;;0.30;0.10;;;;;;;4.17;81.45;95475.58;104951;1254;99234;-79
2023/11/24 03:18:34;;;;;;;;;;;;;;;4.14;81.56;95471.08;105035;1257;103657;-79
2023/11/24 03:21:02;;;;;;;0.40;0.40;;;;;;;4.07;81.58;95478.45;104948;1257;101344;-79
2023/11/24 03:23:30;;;;;;;0.80;0.50;;;;;;;4.02;81.65;95482.30;104984;1267;100055;-79
2023/11/24 03:25:57;;;;;;;0.30;0.20;;;;;;;3.98;81.55;95487.55;104975;1270;97886;-80
2023/11/24 03:28:25;;;;;;;0.50;0.40;;;;;;;3.91;81.40;95492.24;104952;1258;98306;-79
2023/11/24 03:30:53;;;;;;;0.50;0.30;;;;;;;3.87;81.46;95494.52;104990;1253;103777;-79
2023/11/24 03:33:21;;;;;;;0.40;0.30;;;;;;;3.83;81.52;95493.70;105090;1255;100275;-79
2023/11/24 03:35:49;;;;;;;0.90;0.20;;;;;;;3.79;81.50;95494.99;104995;1257;99795;-80
2023/11/24 03:38:16;;;;;;;0.80;0.40;;;;;;;3.76;81.62;95501.67;104963;1254;99123;-79
2023/11/24 03:40:45;;;;;;;1.50;0.40;;;;;;;3.71;81.63;95507.77;105042;1264;98507;-80
2023/11/24 03:43:13;;;;;;;0.20;0.10;;;;;;;3.68;81.68;95515.27;104664;1264;102776;-80
2023/11/24 03:45:41;;;;;;;1.00;0.30;;;;;;;3.64;81.74;95509.91;104939;1268;101709;-78
2023/11/24 03:48:09;;;;;;;0.60;0.20;;;;;;;3.62;81.93;95504.55;104892;1257;98630;-77
2023/11/24 03:50:36;;;;;;;0.20;0.10;;;;;;;3.59;81.80;95495.05;104980;1260;97870;-77
2023/11/24 03:53:04;;;;;;;0.50;0.20;;;;;;;3.56;81.88;95482.05;104868;1261;99540;-77
2023/11/24 03:55:32;;;;;;;1.40;0.30;;;;;;;3.57;81.95;95471.77;104958;1257;104103;-77
2023/11/24 03:57:59;;;;;;;1.80;1.40;;;;;;;3.59;82.08;95473.83;104919;1257;108489;-77
2023/11/24 04:00:28;;;;;;;1.70;1.00;;;;;;;3.60;82.04;95492.14;104852;1254;100179;-77
2023/11/24 04:02:56;;;;;;;0.60;0.60;;;;;;;3.58;82.01;95494.80;105018;1260;99126;-77
2023/11/24 04:05:23;;;;;;;0.60;0.30;;;;;;;3.53;82.07;95490.19;104949;1270;98526;-77
2023/11/24 04:07:51;;;;;;;0.20;0.20;;;;;;;3.48;82.12;95486.66;104922;1257;104123;-77
2023/11/24 04:10:20;;;;;;;0.10;0.10;;;;;;;3.44;82.32;95480.64;104872;1267;101394;-77
2023/11/24 04:12:48;;;;;;;0.50;0.20;;;;;;;3.43;82.31;95487.54;104955;1254;99225;-77
2023/11/24 04:15:16;;;;;;;0.80;0.50;;;;;;;3.43;82.45;95488.94;104921;1254;97995;-77
2023/11/24 04:17:45;;;;;;;0.60;0.40;;;;;;;3.40;82.43;95485.05;104956;1254;97910;-79
2023/11/24 04:20:13;;;;;;;0.30;0.20;;;;;;;3.36;82.67;95465.59;104715;1264;103450;-85
2023/11/24 04:22:41;;;;;;;0.80;0.30;;;;;;;3.30;82.82;95456.23;104923;1254;101572;-85
2023/11/24 04:25:10;;;;;;;0.20;0.20;;;;;;;3.29;82.43;95450.02;104713;1261;100167;-85
2023/11/24 04:27:38;;;;;;;0.50;0.40;;;;;;;3.30;82.46;95444.03;104700;1273;97979;-84
2023/11/24 04:30:07;;;;;;;0.50;0.30;;;;;;;3.26;82.79;95437.79;104946;1270;98399;-85
2023/11/24 04:32:35;;;;;;;1.10;0.50;;;;;;;3.20;83.30;95434.77;104989;1254;102186;-79
2023/11/24 04:35:03;;;;;;;2.00;0.40;;;;;;;3.18;83.19;95433.11;105031;1259;99953;-79
2023/11/24 04:37:31;;;;;;;1.00;0.40;;;;;;;3.21;82.98;95421.77;104798;1268;153705;-79
2023/11/24 04:39:59;;;;;;;0.80;0.40;;;;;;;3.21;82.98;95411.85;104928;1254;97984;-79
2023/11/24 04:42:28;;;;;;;0.40;0.40;;;;;;;3.20;82.99;95409.96;104908;1258;98398;-78
2023/11/24 04:44:56;;;;;;;0.70;0.40;;;;;;;3.18;82.77;95417.92;104982;1260;102526;-79
2023/11/24 04:47:24;;;;;;;0.70;0.50;;;;;;;3.18;82.64;95403.48;105002;1254;101427;-80
2023/11/24 04:49:52;;;;;;;0.70;0.60;;;;;;;3.20;82.88;95391.46;104866;1257;99312;-80
2023/11/24 04:52:19;;;;;;;2.80;0.40;;;;;;;3.20;82.62;95388.14;104891;1257;97835;-80
2023/11/24 04:54:47;;;;;;;1.00;0.40;;;;;;;3.21;82.63;95394.20;104946;1258;98383;-80
2023/11/24 04:57:15;;;;;;;2.40;0.50;;;;;;;3.21;82.61;95396.58;104914;1253;103771;-77
2023/11/24 04:59:43;;;;;;;0.70;0.70;;;;;;;3.18;82.78;95390.73;104942;1257;101649;-77
2023/11/24 05:02:12;;;;;;;0.70;0.50;;;;;;;3.15;82.76;95389.08;104896;1269;100153;-79
2023/11/24 05:04:40;;;;;;;1.30;0.30;;;;;;;3.13;82.61;95380.56;104917;1254;98382;-79
2023/11/24 05:07:08;;;;;;;0.40;0.40;;;;;;;3.15;82.45;95373.73;104946;1258;98843;-79
2023/11/24 05:09:36;;;;;;;1.40;0.60;;;;;;;3.15;82.47;95369.42;105001;1254;103840;-79
2023/11/24 05:12:04;;;;;;;2.10;0.50;;;;;;;3.12;82.62;95357.77;104906;1260;101603;-79
2023/11/24 05:14:32;;;;;;;1.00;0.50;;;;;;;3.10;82.73;95348.30;104912;1254;100079;-79
2023/11/24 05:17:00;;;;;;;0.60;0.40;;;;;;;3.12;82.60;95348.75;104952;1258;97903;-79
2023/11/24 05:19:28;;;;;;;1.30;0.50;;;;;;;3.14;82.56;95367.21;104955;1270;98379;-79
2023/11/24 05:21:56;;;;;;;2.40;0.50;;;;;;;3.15;82.49;95358.38;104920;1270;103941;-79
2023/11/24 05:24:23;;;;;;;1.70;0.60;;;;;;;3.16;82.62;95359.16;104917;1260;101290;-78
2023/11/24 05:26:51;;;;;;;1.80;0.50;;;;;;;3.19;82.31;95357.79;104910;1257;99290;-80
2023/11/24 05:29:19;;;;;;;2.00;1.40;;;;;;;3.22;82.28;95361.02;104971;1260;99234;-78
2023/11/24 05:31:46;;;;;;;1.50;1.30;;;;;;;3.21;82.30;95354.13;104966;1269;99093;-78
2023/11/24 05:34:14;;;;;;;1.40;0.60;;;;;;;3.23;82.25;95359.25;104918;1257;103670;-79
2023/11/24 05:36:44;;;;;;;1.90;0.70;;;;;;;3.24;82.27;95362.23;104955;1260;101219;-87
2023/11/24 05:39:12;;;;;;;1.60;0.70;;;;;;;3.24;81.81;95359.24;104713;1254;99889;-87
2023/11/24 05:41:41;;;;;;;3.30;1.00;;;;;;;3.30;81.48;95361.83;104884;1258;98042;-85
2023/11/24 05:44:09;;;;;;;2.00;0.60;;;;;;;3.34;80.79;95368.41;104913;1257;98475;-85
2023/11/24 05:46:37;;;;;;;2.00;0.70;;;;;;;3.37;79.99;95363.66;104659;1273;103456;-79
2023/11/24 05:49:06;;;;;;;1.60;0.60;;;;;;;3.42;80.18;95367.80;105080;1257;101325;-80
2023/11/24 05:51:33;;;;;;;1.30;0.80;;;;;;;3.45;80.14;95356.51;104849;1268;99987;-80
2023/11/24 05:54:01;;;;;;;1.80;0.60;;;;;;;3.47;80.01;95347.39;104942;1257;97977;-80
2023/11/24 05:56:29;;;;;;;0.90;0.60;;;;;;;3.49;80.27;95356.33;104939;1259;98859;-80
2023/11/24 05:58:56;;;;;;;1.90;1.10;;;;;;;3.51;80.20;95361.83;104940;1259;103674;-80
2023/11/24 06:01:24;;;;;;;1.20;0.50;;;;;;;3.53;80.28;95357.75;104925;1258;100588;-85
2023/11/24 06:03:52;;;;;;;3.50;0.90;;;;;;;3.56;80.14;95355.42;104965;1259;100000;-86
2023/11/24 06:06:20;;;;;;;2.90;1.10;;;;;;;3.58;80.34;95357.55;104902;1259;97893;-84
2023/11/24 06:08:47;;;;;;;2.10;0.90;;;;;;;3.57;80.11;95359.25;104918;1259;98423;-86
2023/11/24 06:11:17;;;;;;;4.00;1.60;;;;;;;3.55;80.08;95362.33;104943;1258;103710;-86
2023/11/24 06:13:46;;;;;;;4.70;2.70;;;;;;;3.56;80.56;95364.87;104970;1260;101738;-86
2023/11/24 06:16:14;;;;;;;9.10;4.20;;;;;;;3.61;80.73;95372.23;104745;1256;100028;-86
2023/11/24 06:18:42;;;;;;;12.60;5.00;;;;;;;3.64;80.60;95379.63;104951;1260;99148;-86
2023/11/24 06:21:12;;;;;;;10.10;4.90;;;;;;;3.64;80.56;95380.55;104934;1258;98325;-86
2023/11/24 06:23:41;;;;;;;35.10;25.20;;;;;;;3.64;80.61;95386.26;105071;1270;103728;-84
2023/11/24 06:26:09;;;;;;;12.70;9.70;;;;;;;3.63;80.54;95392.14;104548;1266;101422;-85
2023/11/24 06:28:37;;;;;;;1.90;1.40;;;;;;;3.56;80.50;95418.98;104942;1258;99913;-83
2023/11/24 06:31:07;;;;;;;0.30;0.30;;;;;;;3.24;79.91;95433.58;104907;1258;97915;-81
2023/11/24 06:33:34;;;;;;;1.50;0.70;;;;;;;2.77;79.52;95442.06;104942;1254;98494;-83
2023/11/24 07:36:53;;;;;;;7.50;5.00;;;;;;;1.46;84.26;95452.43;104887;1262;102958;-84
2023/11/24 07:39:22;;;;;;;8.00;5.40;;;;;;;1.52;84.25;95444.05;104824;1259;101375;-84
2023/11/24 07:41:51;;;;;;;8.40;6.90;;;;;;;1.57;84.21;95444.32;104461;1267;100240;-83
2023/11/24 07:44:18;;;;;;;7.20;6.30;;;;;;;1.64;84.23;95445.99;104710;1260;97922;-82
2023/11/24 07:46:46;;;;;;;6.90;5.90;;;;;;;1.73;84.25;95438.02;104837;1259;97909;-83
2023/11/24 07:49:14;;;;;;;6.80;4.40;;;;;;;1.82;84.28;95440.46;104734;1260;112737;-77
2023/11/24 07:51:41;;;;;;;7.30;4.10;;;;;;;1.88;84.22;95447.96;104806;1260;101839;-78
2023/11/24 07:54:09;;;;;;;6.00;3.20;;;;;;;1.93;84.20;95452.50;104767;1256;106856;-77
2023/11/24 07:56:37;;;;;;;5.00;2.90;;;;;;;2.00;84.18;95457.13;104855;1256;97996;-77
2023/11/24 07:59:05;;;;;;;9.50;3.50;;;;;;;2.09;84.26;95453.03;104800;1273;98425;-77
2023/11/24 08:01:32;;;;;;;6.30;3.40;;;;;;;2.21;84.35;95444.95;104839;1256;103700;-78
2023/11/24 08:04:01;;;;;;;7.60;3.40;;;;;;;2.32;84.27;95445.05;104809;1260;101904;-78
2023/11/24 08:06:29;;;;;;;11.80;4.10;;;;;;;2.38;84.04;95448.16;104746;1259;99066;-78
2023/11/24 08:08:59;;;;;;;9.70;3.30;;;;;;;2.42;83.88;95446.50;104806;1256;97926;-78
2023/11/24 08:11:27;;;;;;;12.40;4.00;;;;;;;2.46;83.70;95438.91;104788;1259;99496;-78
2023/11/24 08:13:55;;;;;;;9.80;3.40;;;;;;;2.49;83.60;95439.16;104408;1267;102668;-78
2023/11/24 08:16:23;;;;;;;6.80;2.70;;;;;;;2.51;83.51;95439.90;104825;1267;101286;-78
2023/11/24 08:18:52;;;;;;;10.70;3.20;;;;;;;2.56;83.54;95440.86;104869;1259;99887;-78
2023/11/24 08:21:20;;;;;;;12.10;3.00;;;;;;;2.62;83.35;95433.35;104855;1261;97909;-78
2023/11/24 08:23:48;;;;;;;13.70;3.30;;;;;;;2.71;83.31;95436.06;104875;1260;99126;-78
2023/11/24 08:26:17;;;;;;;10.90;3.10;;;;;;;2.80;83.00;95423.06;104816;1260;103764;-79
2023/11/24 08:28:45;;;;;;;10.40;3.10;;;;;;;2.87;82.74;95422.93;104823;1259;101500;-79
2023/11/24 08:31:20;;;;;;;6.50;2.60;;;;;;;2.92;82.34;95425.27;104864;1270;100320;-80
2023/11/24 08:33:49;;;;;;;17.70;4.10;;;;;;;2.93;81.53;95422.27;104768;1261;98232;-80
2023/11/24 08:36:17;;;;;;;12.20;3.00;;;;;;;2.98;81.49;95424.85;104852;1261;98402;-80
2023/11/24 08:38:45;;;;;;;8.20;2.80;;;;;;;3.02;81.42;95427.55;104899;1260;103791;-79
2023/11/24 08:41:16;;;;;;;8.50;2.90;;;;;;;3.03;81.29;95427.63;104914;1259;100334;-80
2023/11/24 08:43:46;;;;;;;7.60;2.90;;;;;;;3.04;80.97;95431.45;104880;1259;100497;-79
2023/11/24 08:46:14;;;;;;;6.80;3.20;;;;;;;3.07;80.98;95429.67;104970;1259;97906;-87
2023/11/24 08:48:42;;;;;;;9.30;2.90;;;;;;;3.14;80.52;95422.13;104800;1257;98335;-80
2023/11/24 08:51:10;;;;;;;11.80;3.60;;;;;;;3.19;80.44;95420.63;104924;1270;103854;-80
2023/11/24 08:53:39;;;;;;;11.80;2.90;;;;;;;3.23;80.32;95424.10;104908;1254;99648;-79
2023/11/24 08:56:10;;;;;;;12.00;3.10;;;;;;;3.26;79.77;95424.23;104964;1259;98704;-79
2023/11/24 08:58:38;;;;;;;8.50;2.30;;;;;;;3.30;79.76;95427.70;104927;1260;97988;-79
2023/11/24 09:01:06;;;;;;;11.20;3.60;;;;;;;3.31;79.66;95426.39;104951;1260;98325;-79
2023/11/24 09:03:34;;;;;;;19.20;7.40;;;;;;;3.35;79.57;95425.76;104947;1256;103529;-79
2023/11/24 09:06:02;;;;;;;14.60;6.20;;;;;;;3.36;78.29;95416.69;104592;1254;100535;-79
2023/11/24 09:08:30;;;;;;;13.90;4.30;;;;;;;3.37;78.41;95409.09;104581;1277;100186;-78
2023/11/24 09:10:58;;;;;;;7.40;2.80;;;;;;;3.41;78.92;95413.98;104936;1268;98353;-79
2023/11/24 09:13:27;;;;;;;16.80;8.90;;;;;;;3.43;78.80;95418.05;104898;1254;98453;-78
2023/11/24 09:15:55;;;;;;;21.70;11.20;;;;;;;3.43;78.57;95417.94;104925;1259;103820;-78
2023/11/24 09:18:22;;;;;;;15.00;6.70;;;;;;;3.47;79.07;95414.36;104956;1256;100322;-78
2023/11/24 09:20:50;;;;;;;29.40;10.60;;;;;;;3.54;79.21;95407.73;104751;1265;99899;-79
2023/11/24 09:23:18;;;;;;;26.00;9.90;;;;;;;3.53;78.34;95405.40;104584;1265;98499;-78
2023/11/24 09:25:48;;;;;;;11.20;5.10;;;;;;;3.47;77.79;95402.70;105009;1258;98366;-79
2023/11/24 09:28:16;;;;;;;13.20;4.30;;;;;;;3.48;78.07;95393.46;104935;1260;103623;-79
2023/11/24 09:30:44;;;;;;;10.50;3.60;;;;;;;3.51;76.68;95387.70;104933;1259;101514;-78
2023/11/24 09:33:13;;;;;;;13.80;4.20;;;;;;;3.53;76.75;95374.70;104886;1258;98719;-85
2023/11/24 09:35:41;;;;;;;29.30;11.40;;;;;;;3.60;77.44;95383.27;104937;1255;97983;-85
2023/11/24 09:38:09;;;;;;;17.10;7.10;;;;;;;3.70;77.93;95380.64;104886;1266;99233;-85
2023/11/24 09:40:37;;;;;;;11.20;5.00;;;;;;;3.79;77.57;95366.45;104917;1259;103855;-86
2023/11/24 09:43:05;;;;;;;16.80;7.20;;;;;;;3.86;77.59;95361.73;104986;1260;101534;-82
2023/11/24 09:45:33;;;;;;;28.60;13.40;;;;;;;3.92;77.50;95361.69;104901;1254;100145;-85
2023/11/24 09:48:02;;;;;;;23.50;12.20;;;;;;;3.94;76.80;95362.58;104927;1259;97912;-79
2023/11/24 09:50:30;;;;;;;9.10;4.30;;;;;;;3.98;76.52;95366.59;104973;1258;97850;-79
2023/11/24 09:52:59;;;;;;;10.80;3.20;;;;;;;4.03;76.26;95358.17;104920;1258;102676;-80
2023/11/24 09:55:29;;;;;;;10.30;3.10;;;;;;;4.20;76.23;95355.83;104641;1262;101409;-79
2023/11/24 09:57:57;;;;;;;11.80;4.00;;;;;;;4.46;75.92;95344.48;104943;1259;99256;-79
2023/11/24 10:00:25;;;;;;;13.60;6.20;;;;;;;4.65;75.19;95341.02;104915;1259;98074;-80
2023/11/24 10:02:53;;;;;;;8.10;3.40;;;;;;;4.86;74.34;95339.11;104957;1259;99759;-78
2023/11/24 10:05:22;;;;;;;6.80;2.10;;;;;;;5.09;73.44;95342.95;104956;1259;102594;-78
2023/11/24 10:07:51;;;;;;;17.40;6.60;;;;;;;5.35;74.06;95334.65;104935;1254;100041;-78
2023/11/24 10:10:23;;;;;;;6.70;3.20;;;;;;;5.58;74.24;95333.23;105006;1259;100232;-79
2023/11/24 10:12:53;;;;;;;10.00;4.10;;;;;;;5.83;73.30;95329.56;105033;1257;97976;-79
2023/11/24 10:15:21;;;;;;;8.70;3.50;;;;;;;6.01;73.50;95322.29;104735;1262;98434;-79
2023/11/24 10:17:49;;;;;;;8.80;3.30;;;;;;;6.03;72.67;95320.95;104906;1259;102709;-82
2023/11/24 10:20:22;;;;;;;8.60;4.30;;;;;;;6.00;72.22;95320.36;104861;1259;100452;-84
2023/11/24 10:22:52;;;;;;;11.50;3.60;;;;;;;5.88;69.73;95311.21;104857;1260;100162;-81
2023/11/24 10:25:24;;;;;;;13.10;5.30;;;;;;;5.67;68.53;95295.29;104727;1270;99069;-79
2023/11/24 10:27:58;;;;;;;8.40;2.90;;;;;;;5.56;69.44;95286.61;104631;1264;99509;-79
2023/11/24 10:30:26;;;;;;;6.60;3.00;;;;;;;5.40;67.95;95289.67;104943;1259;103912;-80
2023/11/24 10:32:53;;;;;;;10.00;3.70;;;;;;;5.28;68.23;95298.41;104816;1254;100326;-79
2023/11/24 10:35:21;;;;;;;11.90;4.20;;;;;;;5.18;68.49;95307.56;104993;1256;100171;-78
2023/11/24 10:37:50;;;;;;;10.70;3.10;;;;;;;5.10;69.64;95305.48;104883;1259;97928;-78
2023/11/24 10:40:18;;;;;;;9.70;2.90;;;;;;;5.10;70.19;95297.87;104845;1259;98478;-79
2023/11/24 10:42:50;;;;;;;9.20;3.70;;;;;;;5.08;70.27;95290.94;104583;1262;110786;-78
2023/11/24 10:45:20;;;;;;;12.50;5.40;;;;;;;5.04;70.17;95280.20;104572;1262;100541;-79
2023/11/24 10:48:15;;;;;;;9.60;3.60;;;;;;;4.96;69.65;95273.63;104609;1262;100695;-78
2023/11/24 10:50:50;;;;;;;11.70;3.40;;;;;;;4.85;68.25;95265.59;104556;1265;98846;-79
2023/11/24 10:53:33;;;;;;;10.40;4.00;;;;;;;4.71;68.52;95257.43;104526;1264;99186;-78
2023/11/24 10:56:03;;;;;;;8.10;2.50;;;;;;;4.70;68.71;95252.36;104559;1262;102459;-79
2023/11/24 10:58:33;;;;;;;7.80;2.60;;;;;;;4.88;69.10;95231.54;104579;1272;101532;-80
2023/11/24 11:01:02;;;;;;;6.70;2.90;;;;;;;5.08;70.07;95219.70;104465;1265;100573;-76
2023/11/24 11:03:34;;;;;;;6.10;2.80;;;;;;;5.53;69.86;95216.70;104414;1275;97978;-76
2023/11/24 11:06:25;;;;;;;7.70;2.60;;;;;;;5.97;69.30;95214.06;104360;1267;99079;-76
2023/11/24 11:09:08;;;;;;;8.10;3.00;;;;;;;6.42;69.35;95211.30;104629;1262;104104;-77
2023/11/24 11:12:13;;;;;;;5.40;2.70;;;;;;;6.64;65.34;95206.33;104548;1262;111411;-76
2023/11/24 11:14:44;;;;;;;9.20;4.20;;;;;;;6.51;66.59;95213.13;104188;1274;99024;-77
2023/11/24 11:17:17;;;;;;;11.00;4.30;;;;;;;6.67;67.41;95212.94;104387;1269;98086;-80
2023/11/24 11:19:58;;;;;;;10.20;5.80;;;;;;;6.74;67.00;95210.61;104369;1265;98838;-79
2023/11/24 11:22:48;;;;;;;7.30;3.50;;;;;;;6.87;67.96;95199.25;104677;1263;103787;-79
2023/11/24 11:25:26;;;;;;;15.60;5.10;;;;;;;7.15;67.28;95192.52;104711;1263;101525;-85
2023/11/24 11:27:55;;;;;;;9.70;3.70;;;;;;;7.40;65.77;95187.73;104782;1257;100368;-85
2023/11/24 11:30:26;;;;;;;5.10;2.10;;;;;;;7.57;66.45;95183.53;104631;1265;99253;-85
2023/11/24 11:33:03;;;;;;;6.50;3.20;;;;;;;7.88;63.51;95177.17;104757;1262;97892;-85
2023/11/24 11:35:34;;;;;;;7.70;3.30;;;;;;;8.12;64.09;95170.62;104928;1259;103541;-86
2023/11/24 11:38:02;;;;;;;6.00;2.80;;;;;;;8.38;64.09;95164.01;104852;1259;101562;-84
2023/11/24 11:40:33;;;;;;;6.20;3.40;;;;;;;8.59;64.39;95164.73;104999;1258;99958;-78
2023/11/24 11:43:09;;;;;;;5.30;3.40;;;;;;;8.84;63.75;95160.20;104674;1262;98239;-79
2023/11/24 11:45:53;;;;;;;9.80;2.90;;;;;;;9.02;63.07;95146.10;105026;1254;98328;-80
2023/11/24 11:48:21;;;;;;;13.30;5.40;;;;;;;9.14;62.41;95145.23;104767;1259;103619;-79
2023/11/24 11:51:01;;;;;;;9.80;3.80;;;;;;;9.09;56.97;95133.34;104914;1259;101678;-79
2023/11/24 11:53:31;;;;;;;6.50;2.40;;;;;;;8.84;56.58;95128.58;104929;1259;100196;-80
2023/11/24 11:56:00;;;;;;;7.50;3.60;;;;;;;8.77;57.35;95121.13;104870;1262;98168;-80
2023/11/24 11:58:29;;;;;;;6.10;2.60;;;;;;;8.58;55.51;95125.02;104711;1261;98462;-80
2023/11/24 12:00:57;;;;;;;7.40;3.60;;;;;;;8.35;55.99;95123.48;104935;1259;104298;-80
2023/11/24 12:03:25;;;;;;;6.40;2.70;;;;;;;8.17;57.00;95114.94;104913;1259;101219;-77
2023/11/24 12:05:53;;;;;;;5.20;2.00;;;;;;;8.09;57.70;95112.23;104898;1260;99120;-77
2023/11/24 12:08:27;;;;;;;5.50;2.70;;;;;;;8.01;56.79;95103.70;104890;1269;97874;-77
2023/11/24 12:10:55;;;;;;;5.90;2.50;;;;;;;7.91;56.83;95103.79;104868;1259;98437;-77
2023/11/24 12:13:24;;;;;;;5.50;2.00;;;;;;;7.81;57.88;95109.52;104927;1259;103675;-77
2023/11/24 12:15:53;;;;;;;3.40;2.10;;;;;;;7.71;56.33;95111.70;104951;1259;100048;-77
2023/11/24 12:18:21;;;;;;;4.70;1.90;;;;;;;7.60;57.02;95112.75;104937;1272;100277;-77
2023/11/24 12:20:50;;;;;;;5.50;2.00;;;;;;;7.52;56.68;95104.95;104860;1259;98052;-77
2023/11/24 12:23:21;;;;;;;5.00;2.00;;;;;;;7.50;57.56;95102.13;104900;1259;99129;-77
2023/11/24 12:25:48;;;;;;;4.90;1.80;;;;;;;7.51;58.29;95102.84;104913;1257;102224;-77
2023/11/24 12:28:17;;;;;;;6.20;2.10;;;;;;;7.50;57.34;95102.67;104906;1258;100455;-77
2023/11/24 12:30:46;;;;;;;6.20;2.20;;;;;;;7.40;54.96;95104.09;104928;1257;100241;-77
2023/11/24 12:33:14;;;;;;;3.80;2.10;;;;;;;7.30;56.81;95103.94;104963;1259;98395;-77
2023/11/24 12:35:49;;;;;;;2.80;1.40;;;;;;;7.37;57.92;95110.39;104717;1272;98498;-77